AirNav   Pilot Hours Calculator
 
 1496 users online  

MI40 Fairlane Plaza Heliport
Dearborn, Michigan, USA

GOING TO DEARBORN?


FAA INFORMATION EFFECTIVE 02 JANUARY 2020

Location

FAA Identifier: MI40
Lat/Long: 42-19-15.1350N 083-13-09.7380W
42-19.252250N 083-13.162300W
42.3208708,-83.2193717
(estimated)
Elevation: 614 ft. / 187 m (estimated)
Variation: 05W (1985)
Time zone: UTC -5 (UTC -4 during Daylight Saving Time)
Zip code: 48126

Heliport Operations

Heliport use: Private use. Permission required prior to landing
Activation date: 10/1989
Control tower: no
ARTCC: CLEVELAND CENTER
FSS: LANSING FLIGHT SERVICE STATION
Attendance: UNATNDD
Wind indicator: yes
Segmented circle: yes
Lights: FOR PERIMETER LGTS CALL 313-845-3900.

Heliport Communications

WX ASOS at DTW (9 nm SW): 133.675 (734-955-5015)
WX ASOS at DET (11 nm NE): PHONE 313-371-9696
WX AWOS-3 at VLL (13 nm N): 119.475 (248-288-4649)
WX AWOS-3 at ONZ (14 nm S): 119.675 (734-692-9686)
WX ASOS at YIP (15 nm W): 132.35 (734-961-6843)

Nearby radio navigation aids

VOR radial/distance  VOR name  Freq  Var
DXOr051/9.2DETROIT VOR/DME113.4006W
SVMr111/17.4SALEM VORTAC114.3003W
YQGr290/17.8WINDSOR VOR/DME113.8006W
CRLr036/19.5CARLETON VOR/DME115.7003W

 
NDB name  Hdg/Dist  Freq  Var  ID
GROSSE ILE354/13.541907WRYS .-. -.-- ...
TECUMSEH066/34.323906WTCU - -.-. ..-

Heliport Services

Runway Information

Helipad H1

Dimensions: 44 x 40 ft. / 13 x 12 m
Surface: concrete
Runway edge lights: PERI
Latitude: 42-19.252250N
Longitude: 083-13.162300W
Elevation: 614.0 ft.
Traffic pattern: leftleft

Heliport Ownership and Management from official FAA records

Ownership: Privately-owned
Owner: FORD MOTOR LAND DEVELOPMENT
330 TOWN CENTER DR, SUITE 1100
DEARBORN, MI 48126
Phone 313-323-4140
Manager: MELISSA MAYNARD
330 TOWN CENTER DR, SUITE 300
DEARBORN, MI 48126
Phone (313) 206-8337
ROBERT PORCHIA, 313-323-0381, RPOCHIA@FORD.COM

Additional Remarks

FOR CD CTC DETROIT APCH AT 800-499-8181.

Instrument Procedures

There are no published instrument procedures at MI40.

Some nearby airports with instrument procedures:

KDTW - Detroit Metropolitan Wayne County Airport (9 nm SW)
1D2 - Canton-Plymouth-Mettetal Airport (11 nm W)
KDET - Coleman A Young Municipal Airport (11 nm NE)
KVLL - Oakland/Troy Airport (13 nm N)
KONZ - Grosse Ile Municipal Airport (14 nm S)
KYIP - Willow Run Airport (15 nm W)
 
Loc | Ops | Rwys | IFR | FBO | Links
Com | Nav | Svcs | Stats | Notes
Area around MI40 (Fairlane Plaza Heliport)
 
Road maps at: MapQuest Bing Google
 
Aerial photo
No photo
 
Sectional chart

 
Airport distance calculator
Flying to Fairlane Plaza Heliport? Find the distance to fly.

From to MI40

Sunrise and sunset
Times for 23-Jan-2020
 Local
(UTC-5)
 Zulu
(UTC)
Morning civil twilight07:2512:25
Sunrise07:5612:56
Sunset17:3422:34
Evening civil twilight18:0523:05

Current date and time
Zulu (UTC)  23-Jan-2020 22:59:51
Local (UTC-5)  23-Jan-2020 17:59:51
 
METAR
KDTW 
7nm SW 
232253Z 11004KT 9SM OVC080 02/M04 A3018 RMK AO2 SLP225 T00171039
KDET 
10nm NE 
232253Z 12004KT 10SM OVC085 01/M03 A3019 RMK AO2 SLP229 T00111033
CYQG 
12nm E 
232200Z AUTO 12005KT 9SM BKN100 BKN120 OVC170 02/M03 A3018 RMK SLP231
KVLL 
13nm N 
232255Z AUTO 11003KT 10SM OVC080 02/M03 A3019 RMK AO2 T00201034
KONZ 
14nm S 
232255Z AUTO 09003KT 10SM OVC080 01/M03 A3017 RMK AO2 T00121034
KYIP 
15nm W 
232253Z 10004KT 10SM OVC080 03/M03 A3017 RMK AO2 SLP221 T00281033
TAF
KDTW 
7nm SW 
232139Z 2322/2424 15007KT P6SM OVC100 FM240000 12005KT P6SM OVC080 FM240700 09005KT P6SM OVC050 TEMPO 2408/2412 P6SM -SHRA OVC025 FM241400 08010KT 5SM -RA BR OVC025 FM242100 09008KT 2SM -RA BR OVC015
KDET 
10nm NE 
232139Z 2322/2418 14007KT P6SM OVC100 FM240000 12005KT P6SM OVC080 FM240700 09005KT P6SM OVC050 TEMPO 2408/2412 P6SM -SHRA OVC025 FM241400 08010KT 5SM -RA BR OVC025
CYQG 
12nm E 
231738Z 2318/2418 15008KT P6SM OVC130 FM232100 11006KT P6SM SCT040 OVC090 FM240500 10005KT P6SM OVC030 TEMPO 2405/2413 P6SM -SHRA PROB30 2405/2413 5SM -FZRA BR OVC020 FM241300 09008KT 5SM -SHRA BR BKN015 OVC040 PROB30 2413/2416 OVC008 FM241600 09012KT 3SM -SHRA BR OVC008 PROB30 2416/2418 OVC005 RMK FCST BASED ON AUTO OBS. NXT FCST BY 240000Z
KYIP 
15nm W 
231120Z 2312/2412 14005KT P6SM OVC180 FM231800 16007KT P6SM OVC120 FM240000 12005KT P6SM OVC080 FM240800 09005KT P6SM VCSH OVC050
NOTAMs
Click for the latest NOTAMs
NOTAMs are issued by the DoD/FAA and will open in a separate window not controlled by AirNav.

 

 
 

Would you like to see your business listed on this page?

 If your business provides an interesting product or service to pilots, flight crews, aircraft, or users of the Fairlane Plaza Heliport, you should consider listing it here.  To start the listing process, click on the button below
 
Add a business
 

Other Pages about Fairlane Plaza Heliport

Update a link
 
Copyright © AirNav, LLC. All rights reserved. Privacy Policy  Contact